PWSweather.com
Personal Weather Stations
Station Observations
COONRAPIDS
Minneapolis, MN 55433

Minneapolis, MN 55433

Lat: 45.187721, Lon: -93.36828

Elevation: 898

Station Type: Davis Vantage Pro 2

High Low Average
Temperature 61.0°F16.1°C 40.5°F4.7°C 51.7°F10.9°C
Dew Point 52.0°F11.1°C 37.2°F2.9°C 43.4°F6.3°C
Winds 3.5 mph 5.6 kmh Calm Calm Calm WCalm W
Wind Gusts 8.1 mph13.0 kmh -- 1.0 mph1.6 kmh
Humidity 88% 52% 74%
Pressure 30.10 in1019.3 mb 29.64 in1003.7 mb -
Precipitation 0.00 in0.0 mm - -
Hour Temp Dew Point Humidity Winds Wind Gusts Pressure Precip Precip Rate Daily Precip Total
12:00 AM 55.1°F12.8°C 51.6°F10.9°C 88% Calm Calm -- 29.64 in1003.7 mb - 0.00 in0.0 mm 0.00 in0.0 mm
12:10 AM 55.2°F12.9°C 51.7°F10.9°C 88% Calm Calm -- 29.64 in1003.7 mb - 0.00 in0.0 mm 0.00 in0.0 mm
12:20 AM 55.3°F12.9°C 51.8°F11.0°C 88% Calm Calm -- 29.65 in1004.1 mb - 0.00 in0.0 mm 0.00 in0.0 mm
12:30 AM 55.4°F13.0°C 51.9°F11.1°C 88% Calm Calm -- 29.64 in1003.7 mb - 0.00 in0.0 mm 0.00 in0.0 mm
12:40 AM 55.5°F13.1°C 52.0°F11.1°C 88% Calm Calm -- 29.65 in1004.1 mb - 0.00 in0.0 mm 0.00 in0.0 mm
12:50 AM 55.5°F13.1°C 52.0°F11.1°C 88% Calm Calm 2.3 mph3.7 kmh 29.65 in1004.1 mb - 0.00 in0.0 mm 0.00 in0.0 mm
01:00 AM 55.4°F13.0°C 51.6°F10.9°C 87% Calm Calm -- 29.65 in1004.1 mb - 0.00 in0.0 mm 0.00 in0.0 mm
01:10 AM 55.1°F12.8°C 51.3°F10.7°C 87% Calm Calm 3.5 mph5.6 kmh 29.66 in1004.4 mb - 0.00 in0.0 mm 0.00 in0.0 mm
01:20 AM 54.9°F12.7°C 51.1°F10.6°C 87% Calm Calm -- 29.66 in1004.4 mb - 0.00 in0.0 mm 0.00 in0.0 mm
01:30 AM 54.4°F12.4°C 50.6°F10.3°C 87% Calm Calm -- 29.66 in1004.4 mb - 0.00 in0.0 mm 0.00 in0.0 mm
01:40 AM 54.3°F12.4°C 50.5°F10.3°C 87% 1.2 mph WSW1.9 kmh WSW 8.1 mph13.0 kmh 29.67 in1004.7 mb - 0.00 in0.0 mm 0.00 in0.0 mm
01:50 AM 54.4°F12.4°C 50.6°F10.3°C 87% 1.2 mph WSW1.9 kmh WSW 3.5 mph5.6 kmh 29.67 in1004.7 mb - 0.00 in0.0 mm 0.00 in0.0 mm
02:00 AM 54.4°F12.4°C 50.3°F10.2°C 86% Calm Calm -- 29.68 in1005.1 mb - 0.00 in0.0 mm 0.00 in0.0 mm
02:10 AM 54.2°F12.3°C 49.5°F9.7°C 84% 1.2 mph SW1.9 kmh SW 2.3 mph3.7 kmh 29.68 in1005.1 mb - 0.00 in0.0 mm 0.00 in0.0 mm
02:20 AM 53.9°F12.2°C 48.8°F9.3°C 83% 1.2 mph W1.9 kmh W 2.3 mph3.7 kmh 29.68 in1005.1 mb - 0.00 in0.0 mm 0.00 in0.0 mm
02:30 AM 53.2°F11.8°C 48.5°F9.2°C 84% Calm Calm -- 29.68 in1005.1 mb - 0.00 in0.0 mm 0.00 in0.0 mm
02:40 AM 52.6°F11.4°C 47.9°F8.8°C 84% Calm Calm -- 29.68 in1005.1 mb - 0.00 in0.0 mm 0.00 in0.0 mm
02:50 AM 51.6°F10.9°C 47.2°F8.4°C 85% Calm Calm -- 29.68 in1005.1 mb - 0.00 in0.0 mm 0.00 in0.0 mm
03:00 AM 51.0°F10.6°C 47.0°F8.3°C 86% Calm Calm -- 29.69 in1005.4 mb - 0.00 in0.0 mm 0.00 in0.0 mm
03:10 AM 50.5°F10.3°C 46.8°F8.2°C 87% Calm Calm -- 29.69 in1005.4 mb - 0.00 in0.0 mm 0.00 in0.0 mm
03:20 AM 50.3°F10.2°C 46.6°F8.1°C 87% Calm Calm -- 29.69 in1005.4 mb - 0.00 in0.0 mm 0.00 in0.0 mm
03:30 AM 50.3°F10.2°C 46.6°F8.1°C 87% Calm Calm 1.2 mph1.9 kmh 29.70 in1005.8 mb - 0.00 in0.0 mm 0.00 in0.0 mm
03:40 AM 50.2°F10.1°C 46.2°F7.9°C 86% Calm Calm -- 29.70 in1005.8 mb - 0.00 in0.0 mm 0.00 in0.0 mm
03:50 AM 50.2°F10.1°C 45.9°F7.7°C 85% Calm Calm -- 29.70 in1005.8 mb - 0.00 in0.0 mm 0.00 in0.0 mm
04:00 AM 50.0°F10.0°C 45.7°F7.6°C 85% Calm Calm -- 29.70 in1005.8 mb - 0.00 in0.0 mm 0.00 in0.0 mm
04:10 AM 50.0°F10.0°C 45.4°F7.4°C 84% Calm Calm -- 29.70 in1005.8 mb - 0.00 in0.0 mm 0.00 in0.0 mm
04:20 AM 49.9°F9.9°C 45.3°F7.4°C 84% Calm Calm -- 29.71 in1006.1 mb - 0.00 in0.0 mm 0.00 in0.0 mm
04:30 AM 49.7°F9.8°C 44.7°F7.1°C 83% Calm Calm -- 29.71 in1006.1 mb - 0.00 in0.0 mm 0.00 in0.0 mm
04:40 AM 49.6°F9.8°C 44.6°F7.0°C 83% Calm Calm -- 29.71 in1006.1 mb - 0.00 in0.0 mm 0.00 in0.0 mm
04:50 AM 49.4°F9.7°C 44.1°F6.7°C 82% Calm Calm -- 29.71 in1006.1 mb - 0.00 in0.0 mm 0.00 in0.0 mm
05:00 AM 49.1°F9.5°C 43.8°F6.6°C 82% Calm Calm -- 29.72 in1006.4 mb - 0.00 in0.0 mm 0.00 in0.0 mm
05:10 AM 49.0°F9.4°C 43.4°F6.3°C 81% Calm Calm -- 29.72 in1006.4 mb - 0.00 in0.0 mm 0.00 in0.0 mm
05:20 AM 48.7°F9.3°C 43.1°F6.2°C 81% Calm Calm -- 29.73 in1006.8 mb - 0.00 in0.0 mm 0.00 in0.0 mm
05:30 AM 48.6°F9.2°C 42.7°F5.9°C 80% Calm Calm -- 29.73 in1006.8 mb - 0.00 in0.0 mm 0.00 in0.0 mm
05:40 AM 48.4°F9.1°C 42.8°F6.0°C 81% Calm Calm -- 29.74 in1007.1 mb - 0.00 in0.0 mm 0.00 in0.0 mm
05:50 AM 47.9°F8.8°C 42.4°F5.8°C 81% Calm Calm -- 29.74 in1007.1 mb - 0.00 in0.0 mm 0.00 in0.0 mm
06:00 AM 47.4°F8.6°C 41.8°F5.4°C 81% Calm Calm -- 29.75 in1007.5 mb - 0.00 in0.0 mm 0.00 in0.0 mm
06:10 AM 46.8°F8.2°C 41.6°F5.3°C 82% Calm Calm 1.2 mph1.9 kmh 29.75 in1007.5 mb - 0.00 in0.0 mm 0.00 in0.0 mm
06:20 AM 46.3°F7.9°C 41.4°F5.2°C 83% Calm Calm -- 29.76 in1007.8 mb - 0.00 in0.0 mm 0.00 in0.0 mm
06:30 AM 45.7°F7.6°C 40.9°F4.9°C 83% Calm Calm -- 29.76 in1007.8 mb - 0.00 in0.0 mm 0.00 in0.0 mm
06:40 AM 45.1°F7.3°C 40.5°F4.7°C 84% Calm Calm -- 29.76 in1007.8 mb - 0.00 in0.0 mm 0.00 in0.0 mm
06:50 AM 44.7°F7.1°C 40.5°F4.7°C 85% Calm Calm -- 29.77 in1008.1 mb - 0.00 in0.0 mm 0.00 in0.0 mm
07:00 AM 45.3°F7.4°C 41.0°F5.0°C 85% Calm Calm -- 29.78 in1008.5 mb - 0.00 in0.0 mm 0.00 in0.0 mm
07:10 AM 46.0°F7.8°C 41.1°F5.1°C 83% Calm Calm -- 29.79 in1008.8 mb - 0.00 in0.0 mm 0.00 in0.0 mm
07:20 AM 46.5°F8.1°C 41.3°F5.2°C 82% Calm Calm -- 29.80 in1009.1 mb - 0.00 in0.0 mm 0.00 in0.0 mm
07:30 AM 46.9°F8.3°C 41.4°F5.2°C 81% Calm Calm -- 29.80 in1009.1 mb - 0.00 in0.0 mm 0.00 in0.0 mm
07:40 AM 47.0°F8.3°C 41.5°F5.3°C 81% Calm Calm -- 29.81 in1009.5 mb - 0.00 in0.0 mm 0.00 in0.0 mm
07:50 AM 47.4°F8.6°C 41.6°F5.3°C 80% Calm Calm -- 29.82 in1009.8 mb - 0.00 in0.0 mm 0.00 in0.0 mm
08:00 AM 48.3°F9.1°C 41.8°F5.4°C 78% Calm Calm -- 29.82 in1009.8 mb - 0.00 in0.0 mm 0.00 in0.0 mm
08:10 AM 49.4°F9.7°C 42.1°F5.6°C 76% Calm Calm -- 29.83 in1010.2 mb - 0.00 in0.0 mm 0.00 in0.0 mm
08:20 AM 50.0°F10.0°C 42.4°F5.8°C 75% Calm Calm -- 29.83 in1010.2 mb - 0.00 in0.0 mm 0.00 in0.0 mm
08:30 AM 50.5°F10.3°C 42.5°F5.8°C 74% Calm Calm -- 29.83 in1010.2 mb - 0.00 in0.0 mm 0.00 in0.0 mm
08:40 AM 51.2°F10.7°C 42.5°F5.8°C 72% Calm Calm -- 29.84 in1010.5 mb - 0.00 in0.0 mm 0.00 in0.0 mm
08:50 AM 51.6°F10.9°C 42.5°F5.8°C 71% Calm Calm -- 29.84 in1010.5 mb - 0.00 in0.0 mm 0.00 in0.0 mm
09:00 AM 52.3°F11.3°C 43.1°F6.2°C 71% Calm Calm 1.2 mph1.9 kmh 29.84 in1010.5 mb - 0.00 in0.0 mm 0.00 in0.0 mm
09:10 AM 52.7°F11.5°C 43.6°F6.4°C 71% Calm Calm -- 29.84 in1010.5 mb - 0.00 in0.0 mm 0.00 in0.0 mm
09:20 AM 53.1°F11.7°C 43.2°F6.2°C 69% Calm Calm -- 29.84 in1010.5 mb - 0.00 in0.0 mm 0.00 in0.0 mm
09:30 AM 53.7°F12.1°C 43.4°F6.3°C 68% Calm Calm -- 29.84 in1010.5 mb - 0.00 in0.0 mm 0.00 in0.0 mm
09:40 AM 54.1°F12.3°C 43.3°F6.3°C 67% 2.3 mph W3.7 kmh W 5.8 mph9.3 kmh 29.84 in1010.5 mb - 0.00 in0.0 mm 0.00 in0.0 mm
09:50 AM 54.3°F12.4°C 43.6°F6.4°C 67% Calm Calm -- 29.85 in1010.8 mb - 0.00 in0.0 mm 0.00 in0.0 mm
10:00 AM 54.8°F12.7°C 44.1°F6.7°C 67% 2.3 mph NW3.7 kmh NW 6.9 mph11.1 kmh 29.85 in1010.8 mb - 0.00 in0.0 mm 0.00 in0.0 mm
10:10 AM 55.3°F12.9°C 43.7°F6.5°C 65% 1.2 mph NW1.9 kmh NW 3.5 mph5.6 kmh 29.85 in1010.8 mb - 0.00 in0.0 mm 0.00 in0.0 mm
10:20 AM 55.4°F13.0°C 44.3°F6.8°C 66% Calm Calm -- 29.86 in1011.2 mb - 0.00 in0.0 mm 0.00 in0.0 mm
10:30 AM 55.7°F13.2°C 44.5°F6.9°C 66% 1.2 mph WSW1.9 kmh WSW 4.6 mph7.4 kmh 29.86 in1011.2 mb - 0.00 in0.0 mm 0.00 in0.0 mm
10:40 AM 56.1°F13.4°C 44.5°F6.9°C 65% 3.5 mph W5.6 kmh W 4.6 mph7.4 kmh 29.86 in1011.2 mb - 0.00 in0.0 mm 0.00 in0.0 mm
10:50 AM 56.3°F13.5°C 44.3°F6.8°C 64% Calm Calm -- 29.86 in1011.2 mb - 0.00 in0.0 mm 0.00 in0.0 mm
11:00 AM 57.1°F13.9°C 45.0°F7.2°C 64% Calm Calm -- 29.87 in1011.5 mb - 0.00 in0.0 mm 0.00 in0.0 mm
11:10 AM 57.5°F14.2°C 44.6°F7.0°C 62% Calm Calm -- 29.87 in1011.5 mb - 0.00 in0.0 mm 0.00 in0.0 mm
11:20 AM 57.9°F14.4°C 45.0°F7.2°C 62% 1.2 mph NW1.9 kmh NW -- 29.87 in1011.5 mb - 0.00 in0.0 mm 0.00 in0.0 mm
11:30 AM 58.0°F14.4°C 44.6°F7.0°C 61% Calm Calm 5.8 mph9.3 kmh 29.87 in1011.5 mb - 0.00 in0.0 mm 0.00 in0.0 mm
11:40 AM 58.4°F14.7°C 44.6°F7.0°C 60% 2.3 mph W3.7 kmh W 4.6 mph7.4 kmh 29.87 in1011.5 mb - 0.00 in0.0 mm 0.00 in0.0 mm
11:50 AM 58.7°F14.8°C 45.3°F7.4°C 61% 1.2 mph WNW1.9 kmh WNW 6.9 mph11.1 kmh 29.87 in1011.5 mb - 0.00 in0.0 mm 0.00 in0.0 mm
12:00 PM 59.0°F15.0°C 44.7°F7.1°C 59% Calm Calm -- 29.87 in1011.5 mb - 0.00 in0.0 mm 0.00 in0.0 mm
12:10 PM 58.6°F14.8°C 45.2°F7.3°C 61% 2.3 mph WNW3.7 kmh WNW 5.8 mph9.3 kmh 29.88 in1011.9 mb - 0.00 in0.0 mm 0.00 in0.0 mm
12:20 PM 59.3°F15.2°C 45.0°F7.2°C 59% Calm Calm -- 29.87 in1011.5 mb - 0.00 in0.0 mm 0.00 in0.0 mm
12:30 PM 59.8°F15.4°C 45.4°F7.4°C 59% Calm Calm -- 29.88 in1011.9 mb - 0.00 in0.0 mm 0.00 in0.0 mm
12:40 PM 59.9°F15.5°C 44.6°F7.0°C 57% 1.2 mph W1.9 kmh W 2.3 mph3.7 kmh 29.88 in1011.9 mb - 0.00 in0.0 mm 0.00 in0.0 mm
12:50 PM 59.6°F15.3°C 45.2°F7.3°C 59% Calm Calm -- 29.88 in1011.9 mb - 0.00 in0.0 mm 0.00 in0.0 mm
01:00 PM 59.6°F15.3°C 44.8°F7.1°C 58% Calm Calm -- 29.88 in1011.9 mb - 0.00 in0.0 mm 0.00 in0.0 mm
01:10 PM 59.7°F15.4°C 45.3°F7.4°C 59% 1.2 mph NW1.9 kmh NW 2.3 mph3.7 kmh 29.89 in1012.2 mb - 0.00 in0.0 mm 0.00 in0.0 mm
01:20 PM 59.9°F15.5°C 44.6°F7.0°C 57% 2.3 mph WSW3.7 kmh WSW 3.5 mph5.6 kmh 29.89 in1012.2 mb - 0.00 in0.0 mm 0.00 in0.0 mm
01:30 PM 60.5°F15.8°C 45.6°F7.6°C 58% Calm Calm -- 29.89 in1012.2 mb - 0.00 in0.0 mm 0.00 in0.0 mm
01:40 PM 60.7°F15.9°C 44.9°F7.2°C 56% 1.2 mph W1.9 kmh W 4.6 mph7.4 kmh 29.89 in1012.2 mb - 0.00 in0.0 mm 0.00 in0.0 mm
01:50 PM 61.0°F16.1°C 44.2°F6.8°C 54% 1.2 mph NW1.9 kmh NW 4.6 mph7.4 kmh 29.90 in1012.5 mb - 0.00 in0.0 mm 0.00 in0.0 mm
02:00 PM 60.5°F15.8°C 44.2°F6.8°C 55% 1.2 mph W1.9 kmh W 5.8 mph9.3 kmh 29.90 in1012.5 mb - 0.00 in0.0 mm 0.00 in0.0 mm
02:10 PM 60.4°F15.8°C 44.2°F6.8°C 55% 2.3 mph WNW3.7 kmh WNW 5.8 mph9.3 kmh 29.90 in1012.5 mb - 0.00 in0.0 mm 0.00 in0.0 mm
02:20 PM 60.7°F15.9°C 44.4°F6.9°C 55% 1.2 mph W1.9 kmh W 5.8 mph9.3 kmh 29.90 in1012.5 mb - 0.00 in0.0 mm 0.00 in0.0 mm
02:30 PM 60.7°F15.9°C 44.4°F6.9°C 55% Calm Calm 5.8 mph9.3 kmh 29.91 in1012.9 mb - 0.00 in0.0 mm 0.00 in0.0 mm
02:40 PM 61.0°F16.1°C 43.8°F6.6°C 53% Calm Calm -- 29.91 in1012.9 mb - 0.00 in0.0 mm 0.00 in0.0 mm
02:50 PM 60.8°F16.0°C 43.1°F6.2°C 52% 3.5 mph SW5.6 kmh SW 8.1 mph13.0 kmh 29.91 in1012.9 mb - 0.00 in0.0 mm 0.00 in0.0 mm
03:00 PM 60.4°F15.8°C 43.2°F6.2°C 53% 3.5 mph WNW5.6 kmh WNW 3.5 mph5.6 kmh 29.91 in1012.9 mb - 0.00 in0.0 mm 0.00 in0.0 mm
03:10 PM 60.2°F15.7°C 42.5°F5.8°C 52% Calm Calm 3.5 mph5.6 kmh 29.91 in1012.9 mb - 0.00 in0.0 mm 0.00 in0.0 mm
03:20 PM 60.1°F15.6°C 42.9°F6.1°C 53% 1.2 mph WNW1.9 kmh WNW 2.3 mph3.7 kmh 29.91 in1012.9 mb - 0.00 in0.0 mm 0.00 in0.0 mm
03:30 PM 59.4°F15.2°C 42.7°F5.9°C 54% Calm Calm 3.5 mph5.6 kmh 29.92 in1013.2 mb - 0.00 in0.0 mm 0.00 in0.0 mm
03:40 PM 59.0°F15.0°C 42.8°F6.0°C 55% Calm Calm 3.5 mph5.6 kmh 29.93 in1013.5 mb - 0.00 in0.0 mm 0.00 in0.0 mm
03:50 PM 58.5°F14.7°C 42.4°F5.8°C 55% Calm Calm 2.3 mph3.7 kmh 29.93 in1013.5 mb - 0.00 in0.0 mm 0.00 in0.0 mm
04:00 PM 58.2°F14.6°C 42.6°F5.9°C 56% Calm Calm -- 29.93 in1013.5 mb - 0.00 in0.0 mm 0.00 in0.0 mm
04:10 PM 57.8°F14.3°C 42.7°F5.9°C 57% 1.2 mph NW1.9 kmh NW 3.5 mph5.6 kmh 29.93 in1013.5 mb - 0.00 in0.0 mm 0.00 in0.0 mm
04:20 PM 57.5°F14.2°C 42.8°F6.0°C 58% Calm Calm -- 29.93 in1013.5 mb - 0.00 in0.0 mm 0.00 in0.0 mm
04:30 PM 57.1°F13.9°C 42.9°F6.1°C 59% Calm Calm -- 29.93 in1013.5 mb - 0.00 in0.0 mm 0.00 in0.0 mm
04:40 PM 56.4°F13.6°C 42.7°F5.9°C 60% 1.2 mph WNW1.9 kmh WNW -- 29.94 in1013.9 mb - 0.00 in0.0 mm 0.00 in0.0 mm
04:50 PM 55.7°F13.2°C 42.5°F5.8°C 61% Calm Calm -- 29.95 in1014.2 mb - 0.00 in0.0 mm 0.00 in0.0 mm
05:00 PM 55.1°F12.8°C 42.7°F5.9°C 63% Calm Calm -- 29.95 in1014.2 mb - 0.00 in0.0 mm 0.00 in0.0 mm
05:10 PM 54.5°F12.5°C 42.5°F5.8°C 64% Calm Calm -- 29.95 in1014.2 mb - 0.00 in0.0 mm 0.00 in0.0 mm
05:20 PM 54.0°F12.2°C 42.5°F5.8°C 65% Calm Calm -- 29.96 in1014.6 mb - 0.00 in0.0 mm 0.00 in0.0 mm
05:30 PM 53.3°F11.8°C 42.2°F5.7°C 66% Calm Calm -- 29.96 in1014.6 mb - 0.00 in0.0 mm 0.00 in0.0 mm
05:40 PM 52.4°F11.3°C 42.1°F5.6°C 68% Calm Calm -- 29.97 in1014.9 mb - 0.00 in0.0 mm 0.00 in0.0 mm
05:50 PM 51.7°F10.9°C 41.9°F5.5°C 69% Calm Calm -- 29.97 in1014.9 mb - 0.00 in0.0 mm 0.00 in0.0 mm
06:00 PM 51.1°F10.6°C 41.7°F5.4°C 70% Calm Calm -- 29.98 in1015.2 mb - 0.00 in0.0 mm 0.00 in0.0 mm
06:10 PM 50.9°F10.5°C 41.8°F5.4°C 71% Calm Calm -- 29.98 in1015.2 mb - 0.00 in0.0 mm 0.00 in0.0 mm
06:20 PM 50.7°F10.4°C 41.6°F5.3°C 71% 1.2 mph NW1.9 kmh NW 2.3 mph3.7 kmh 29.99 in1015.6 mb - 0.00 in0.0 mm 0.00 in0.0 mm
06:30 PM 50.5°F10.3°C 41.4°F5.2°C 71% Calm Calm -- 29.99 in1015.6 mb - 0.00 in0.0 mm 0.00 in0.0 mm
06:40 PM 50.4°F10.2°C 41.7°F5.4°C 72% Calm Calm -- 29.99 in1015.6 mb - 0.00 in0.0 mm 0.00 in0.0 mm
06:50 PM 50.1°F10.1°C 41.4°F5.2°C 72% Calm Calm -- 30.00 in1015.9 mb - 0.00 in0.0 mm 0.00 in0.0 mm
07:00 PM 49.5°F9.7°C 41.2°F5.1°C 73% Calm Calm -- 30.00 in1015.9 mb - 0.00 in0.0 mm 0.00 in0.0 mm
07:10 PM 48.6°F9.2°C 40.7°F4.8°C 74% Calm Calm -- 30.00 in1015.9 mb - 0.00 in0.0 mm 0.00 in0.0 mm
07:20 PM 47.7°F8.7°C 40.5°F4.7°C 76% Calm Calm -- 30.00 in1015.9 mb - 0.00 in0.0 mm 0.00 in0.0 mm
07:30 PM 46.9°F8.3°C 40.4°F4.7°C 78% Calm Calm -- 30.00 in1015.9 mb - 0.00 in0.0 mm 0.00 in0.0 mm
07:40 PM 46.2°F7.9°C 39.7°F4.3°C 78% Calm Calm -- 30.01 in1016.3 mb - 0.00 in0.0 mm 0.00 in0.0 mm
07:50 PM 45.5°F7.5°C 39.7°F4.3°C 80% Calm Calm -- 30.01 in1016.3 mb - 0.00 in0.0 mm 0.00 in0.0 mm
08:00 PM 45.1°F7.3°C 39.6°F4.2°C 81% Calm Calm -- 30.02 in1016.6 mb - 0.00 in0.0 mm 0.00 in0.0 mm
08:10 PM 44.6°F7.0°C 39.5°F4.2°C 82% Calm Calm -- 30.02 in1016.6 mb - 0.00 in0.0 mm 0.00 in0.0 mm
08:20 PM 44.2°F6.8°C 39.4°F4.1°C 83% Calm Calm -- 30.02 in1016.6 mb - 0.00 in0.0 mm 0.00 in0.0 mm
08:30 PM 43.7°F6.5°C 38.9°F3.8°C 83% Calm Calm -- 30.03 in1016.9 mb - 0.00 in0.0 mm 0.00 in0.0 mm
08:40 PM 43.3°F6.3°C 38.8°F3.8°C 84% Calm Calm -- 30.03 in1016.9 mb - 0.00 in0.0 mm 0.00 in0.0 mm
08:50 PM 43.1°F6.2°C 38.6°F3.7°C 84% Calm Calm -- 30.04 in1017.3 mb - 0.00 in0.0 mm 0.00 in0.0 mm
09:00 PM 42.8°F6.0°C 38.6°F3.7°C 85% Calm Calm -- 30.04 in1017.3 mb - 0.00 in0.0 mm 0.00 in0.0 mm
09:10 PM 42.6°F5.9°C 38.4°F3.6°C 85% Calm Calm -- 30.05 in1017.6 mb - 0.00 in0.0 mm 0.00 in0.0 mm
09:20 PM 42.4°F5.8°C 38.5°F3.6°C 86% Calm Calm -- 30.05 in1017.6 mb - 0.00 in0.0 mm 0.00 in0.0 mm
09:30 PM 42.2°F5.7°C 38.3°F3.5°C 86% Calm Calm -- 30.05 in1017.6 mb - 0.00 in0.0 mm 0.00 in0.0 mm
09:40 PM 41.9°F5.5°C 38.1°F3.4°C 86% Calm Calm -- 30.05 in1017.6 mb - 0.00 in0.0 mm 0.00 in0.0 mm
09:50 PM 42.1°F5.6°C 38.5°F3.6°C 87% Calm Calm -- 30.06 in1017.9 mb - 0.00 in0.0 mm 0.00 in0.0 mm
10:00 PM 42.4°F5.8°C 38.8°F3.8°C 87% Calm Calm -- 30.07 in1018.3 mb - 0.00 in0.0 mm 0.00 in0.0 mm
10:10 PM 42.5°F5.8°C 39.2°F4.0°C 88% Calm Calm -- 30.07 in1018.3 mb - 0.00 in0.0 mm 0.00 in0.0 mm
10:20 PM 42.3°F5.7°C 38.7°F3.7°C 87% Calm Calm -- 30.07 in1018.3 mb - 0.00 in0.0 mm 0.00 in0.0 mm
10:30 PM 42.1°F5.6°C 38.5°F3.6°C 87% Calm Calm -- 30.07 in1018.3 mb - 0.00 in0.0 mm 0.00 in0.0 mm
10:40 PM 41.9°F5.5°C 38.3°F3.5°C 87% Calm Calm -- 30.07 in1018.3 mb - 0.00 in0.0 mm 0.00 in0.0 mm
10:50 PM 41.7°F5.4°C 38.1°F3.4°C 87% Calm Calm -- 30.07 in1018.3 mb - 0.00 in0.0 mm 0.00 in0.0 mm
11:00 PM 41.5°F5.3°C 37.9°F3.3°C 87% Calm Calm -- 30.08 in1018.6 mb - 0.00 in0.0 mm 0.00 in0.0 mm
11:10 PM 41.2°F5.1°C 37.9°F3.3°C 88% Calm Calm -- 30.08 in1018.6 mb - 0.00 in0.0 mm 0.00 in0.0 mm
11:20 PM 40.9°F4.9°C 37.6°F3.1°C 88% Calm Calm -- 30.09 in1019.0 mb - 0.00 in0.0 mm 0.00 in0.0 mm
11:30 PM 40.7°F4.8°C 37.4°F3.0°C 88% Calm Calm -- 30.09 in1019.0 mb - 0.00 in0.0 mm 0.00 in0.0 mm
11:40 PM 40.6°F4.8°C 37.3°F2.9°C 88% Calm Calm -- 30.09 in1019.0 mb - 0.00 in0.0 mm 0.00 in0.0 mm
11:50 PM 40.5°F4.7°C 37.2°F2.9°C 88% Calm Calm -- 30.10 in1019.3 mb - 0.00 in0.0 mm 0.00 in0.0 mm